createdAt,value
2023-09-26T00:00:16.634Z,14.41
2023-09-26T00:02:47.244Z,14.43
2023-09-26T00:05:15.543Z,14.39
2023-09-26T00:07:43.999Z,14.31
2023-09-26T00:10:13.298Z,14.23
2023-09-26T00:12:42.132Z,14.13
2023-09-26T00:15:12.632Z,14.02
2023-09-26T00:17:41.675Z,13.93
2023-09-26T00:20:29.526Z,13.86
2023-09-26T00:22:58.008Z,13.90
2023-09-26T00:25:26.826Z,13.95
2023-09-26T00:27:55.682Z,14.01
2023-09-26T00:30:24.426Z,14.04
2023-09-26T00:32:52.571Z,14.04
2023-09-26T00:35:22.329Z,14.02
2023-09-26T00:37:52.260Z,13.99
2023-09-26T00:40:23.376Z,13.97
2023-09-26T00:42:52.074Z,13.98
2023-09-26T00:45:20.929Z,13.99
2023-09-26T00:47:50.871Z,14.01
2023-09-26T00:50:19.564Z,14.02
2023-09-26T00:52:52.440Z,14.01
2023-09-26T00:55:25.168Z,13.99
2023-09-26T00:57:55.711Z,13.93
2023-09-26T01:00:25.762Z,13.88
2023-09-26T01:02:54.050Z,13.82
2023-09-26T01:05:22.358Z,13.78
2023-09-26T01:07:54.182Z,13.74
2023-09-26T01:10:22.296Z,13.69
2023-09-26T01:12:51.636Z,13.61
2023-09-26T01:15:32.880Z,13.51
2023-09-26T01:18:01.080Z,13.49
2023-09-26T01:20:30.148Z,13.47
2023-09-26T01:23:05.546Z,13.45
2023-09-26T01:25:35.154Z,13.37
2023-09-26T01:28:08.049Z,13.26
2023-09-26T01:30:36.226Z,13.16
2023-09-26T01:33:05.869Z,13.09
2023-09-26T01:35:34.240Z,13.05
2023-09-26T01:38:02.456Z,13.02
2023-09-26T01:40:30.615Z,13.02
2023-09-26T01:43:00.147Z,13.02
2023-09-26T01:45:28.413Z,13.03
2023-09-26T01:47:56.918Z,13.11
2023-09-26T01:50:25.305Z,13.20
2023-09-26T01:52:53.677Z,13.24
2023-09-26T01:55:23.173Z,13.27
2023-09-26T01:57:51.866Z,13.29
2023-09-26T02:00:21.888Z,13.27
2023-09-26T02:02:51.851Z,13.18
2023-09-26T02:05:21.953Z,13.09
2023-09-26T02:07:50.722Z,13.01
2023-09-26T02:10:19.557Z,12.96
2023-09-26T02:12:49.673Z,12.97
2023-09-26T02:15:18.004Z,12.99
2023-09-26T02:17:47.709Z,13.00
2023-09-26T02:20:19.116Z,12.98
2023-09-26T02:22:49.480Z,12.92
2023-09-26T02:25:20.201Z,12.85
2023-09-26T02:27:49.255Z,12.83
2023-09-26T02:30:19.521Z,12.81
2023-09-26T02:32:49.272Z,12.79
2023-09-26T02:35:20.792Z,12.84
2023-09-26T02:37:49.176Z,12.90
2023-09-26T02:40:17.267Z,12.91
2023-09-26T02:42:46.266Z,12.91
2023-09-26T02:45:15.673Z,12.85
2023-09-26T02:47:44.764Z,12.77
2023-09-26T02:50:14.910Z,12.75
2023-09-26T02:52:44.343Z,12.70
2023-09-26T02:55:13.010Z,12.72
2023-09-26T02:57:41.396Z,12.67
2023-09-26T03:00:18.511Z,12.59
2023-09-26T03:02:48.074Z,12.44
2023-09-26T03:05:18.688Z,12.34
2023-09-26T03:07:47.673Z,12.27
2023-09-26T03:10:17.323Z,12.20
2023-09-26T03:12:47.733Z,12.16
2023-09-26T03:15:16.241Z,12.10
2023-09-26T03:17:44.858Z,12.04
2023-09-26T03:20:16.626Z,11.95
2023-09-26T03:22:46.800Z,11.87
2023-09-26T03:25:15.163Z,11.84
2023-09-26T03:27:43.783Z,11.80
2023-09-26T03:30:12.403Z,11.77
2023-09-26T03:32:40.612Z,11.75
2023-09-26T03:35:10.454Z,11.76
2023-09-26T03:37:38.959Z,11.78
2023-09-26T03:40:10.267Z,11.78
2023-09-26T03:42:38.640Z,11.76
2023-09-26T03:45:08.006Z,11.76
2023-09-26T03:47:36.619Z,11.72
2023-09-26T03:50:05.032Z,11.67
2023-09-26T03:52:33.185Z,11.64
2023-09-26T03:55:01.497Z,11.59
2023-09-26T03:57:32.316Z,11.53
2023-09-26T04:00:00.514Z,11.53
2023-09-26T04:02:28.823Z,11.52
2023-09-26T04:04:57.068Z,11.46
2023-09-26T04:07:29.395Z,11.44
2023-09-26T04:09:57.667Z,11.39
2023-09-26T04:12:25.894Z,11.35
2023-09-26T04:14:55.556Z,11.32
2023-09-26T04:17:23.736Z,11.33
2023-09-26T04:19:52.257Z,11.34
2023-09-26T04:22:20.443Z,11.35
2023-09-26T04:24:48.604Z,11.39
2023-09-26T04:27:16.829Z,11.43
2023-09-26T04:29:44.948Z,11.47
2023-09-26T04:32:14.598Z,11.52
2023-09-26T04:34:42.868Z,11.55
2023-09-26T04:37:11.033Z,11.60
2023-09-26T04:39:39.164Z,11.61
2023-09-26T04:42:07.392Z,11.64
2023-09-26T04:44:35.630Z,11.65
2023-09-26T04:47:03.867Z,11.62
2023-09-26T04:49:35.238Z,11.65
2023-09-26T04:52:03.620Z,11.67
2023-09-26T04:54:31.914Z,11.68
2023-09-26T04:57:00.254Z,11.70
2023-09-26T04:59:29.964Z,11.70
2023-09-26T05:01:58.218Z,11.69
2023-09-26T05:04:26.986Z,11.74
2023-09-26T05:06:56.663Z,11.82
2023-09-26T05:09:25.258Z,11.84
2023-09-26T05:11:53.455Z,11.86
2023-09-26T05:14:21.784Z,11.84
2023-09-26T05:16:51.359Z,11.90
2023-09-26T05:19:19.589Z,11.92
2023-09-26T05:21:47.902Z,11.85
2023-09-26T05:24:17.524Z,11.78
2023-09-26T05:26:45.899Z,11.71
2023-09-26T05:29:14.099Z,11.65
2023-09-26T05:31:42.450Z,11.61
2023-09-26T05:34:10.802Z,11.59
2023-09-26T05:36:39.086Z,11.58
2023-09-26T05:39:08.019Z,11.57
2023-09-26T05:41:37.526Z,11.56
2023-09-26T05:44:05.958Z,11.57
2023-09-26T05:46:34.230Z,11.60
2023-09-26T05:49:02.504Z,11.65
2023-09-26T05:51:30.607Z,11.68
2023-09-26T05:53:58.726Z,11.66
2023-09-26T05:56:26.866Z,11.67
2023-09-26T05:58:56.381Z,11.63
2023-09-26T06:01:24.570Z,11.57
2023-09-26T06:03:53.447Z,11.54
2023-09-26T06:06:21.887Z,11.50
2023-09-26T06:08:50.003Z,11.50
2023-09-26T06:11:18.132Z,11.50
2023-09-26T06:13:46.938Z,11.45
2023-09-26T06:16:17.711Z,11.45
2023-09-26T06:18:46.001Z,11.47
2023-09-26T06:21:15.370Z,11.49
2023-09-26T06:23:43.590Z,11.48
2023-09-26T06:26:11.799Z,11.43
2023-09-26T06:28:40.050Z,11.37
2023-09-26T06:31:09.354Z,11.31
2023-09-26T06:33:39.512Z,11.31
2023-09-26T06:36:14.417Z,11.38
2023-09-26T06:38:42.875Z,11.43
2023-09-26T06:41:11.025Z,11.52
2023-09-26T06:43:39.157Z,11.57
2023-09-26T06:46:08.203Z,11.53
2023-09-26T06:48:38.523Z,11.49
2023-09-26T06:51:09.648Z,11.49
2023-09-26T06:53:38.755Z,11.53
2023-09-26T06:56:08.513Z,11.62
2023-09-26T06:58:37.813Z,11.73
2023-09-26T07:01:13.274Z,11.80
2023-09-26T07:03:41.656Z,11.85
2023-09-26T07:06:12.351Z,11.90
2023-09-26T07:08:42.047Z,11.95
2023-09-26T07:11:11.592Z,11.95
2023-09-26T07:16:11.551Z,12.05
2023-09-26T07:18:39.821Z,12.11
2023-09-26T07:21:09.315Z,12.23
2023-09-26T07:23:39.974Z,12.28
2023-09-26T07:26:11.045Z,12.31
2023-09-26T07:28:41.376Z,12.37
2023-09-26T07:31:10.737Z,12.86
2023-09-26T07:33:39.845Z,15.12
2023-09-26T07:36:08.999Z,17.93
2023-09-26T07:38:38.635Z,20.59
2023-09-26T07:41:07.053Z,22.87
2023-09-26T07:43:35.566Z,24.67
2023-09-26T07:46:07.435Z,26.45
2023-09-26T07:48:36.502Z,28.12
2023-09-26T07:51:05.235Z,29.38
2023-09-26T07:53:33.304Z,30.39
2023-09-26T07:56:02.889Z,31.43
2023-09-26T07:58:31.046Z,32.47
2023-09-26T08:01:02.070Z,33.31
2023-09-26T08:03:30.633Z,33.65
2023-09-26T08:06:02.367Z,34.07
2023-09-26T08:08:31.489Z,34.50
2023-09-26T08:11:08.591Z,34.65
2023-09-26T08:13:37.761Z,35.19
2023-09-26T08:16:06.899Z,35.87
2023-09-26T08:18:35.174Z,36.60
2023-09-26T08:21:03.364Z,37.50
2023-09-26T08:23:31.717Z,38.35
2023-09-26T08:26:00.244Z,38.94
2023-09-26T08:28:30.285Z,39.03
2023-09-26T08:30:58.765Z,39.13
2023-09-26T08:33:27.588Z,39.49
2023-09-26T08:35:55.690Z,39.92
2023-09-26T08:38:23.794Z,39.98
2023-09-26T08:40:52.954Z,40.06
2023-09-26T08:43:26.262Z,40.67
2023-09-26T08:45:56.328Z,41.51
2023-09-26T08:48:25.242Z,42.19
2023-09-26T08:50:54.258Z,42.64
2023-09-26T08:53:22.704Z,42.96
2023-09-26T08:55:51.469Z,43.32
2023-09-26T08:58:21.949Z,43.86
2023-09-26T09:00:50.724Z,44.23
2023-09-26T09:03:20.788Z,44.32
2023-09-26T09:05:49.132Z,44.15
2023-09-26T09:08:21.665Z,44.53
2023-09-26T09:10:51.194Z,45.23
2023-09-26T09:13:29.551Z,45.86
2023-09-26T09:16:20.301Z,46.33
2023-09-26T09:18:53.424Z,46.27
2023-09-26T09:21:24.331Z,46.23
2023-09-26T09:23:53.490Z,46.35
2023-09-26T09:26:21.841Z,46.43
2023-09-26T09:28:50.296Z,46.79
2023-09-26T09:31:18.878Z,47.47
2023-09-26T09:33:50.516Z,48.29
2023-09-26T09:36:18.615Z,48.98
2023-09-26T09:38:46.768Z,49.76
2023-09-26T09:41:15.154Z,50.53
2023-09-26T09:43:43.477Z,51.32
2023-09-26T09:46:12.170Z,51.60
2023-09-26T09:48:44.716Z,52.31
2023-09-26T09:51:15.936Z,52.45
2023-09-26T09:53:46.429Z,52.15
2023-09-26T09:56:20.145Z,52.18
2023-09-26T09:58:54.319Z,52.70
2023-09-26T10:01:24.334Z,52.93
2023-09-26T10:03:54.438Z,53.15
2023-09-26T10:06:25.001Z,53.53
2023-09-26T10:08:55.162Z,53.40
2023-09-26T10:11:25.282Z,53.45
2023-09-26T10:13:53.656Z,53.72
2023-09-26T10:16:22.125Z,54.48
2023-09-26T10:18:52.553Z,55.58
2023-09-26T10:21:31.286Z,56.64
2023-09-26T10:24:30.627Z,57.41
2023-09-26T10:27:13.719Z,57.68
2023-09-26T10:29:55.948Z,57.49
2023-09-26T10:32:30.382Z,57.88
2023-09-26T10:35:00.029Z,58.55
2023-09-26T10:37:29.876Z,58.75
2023-09-26T10:39:58.341Z,58.80
2023-09-26T10:44:58.844Z,58.14
2023-09-26T10:47:27.112Z,58.13
2023-09-26T10:49:58.214Z,58.85
2023-09-26T10:52:31.750Z,59.52
2023-09-26T10:55:00.279Z,59.93
2023-09-26T10:57:28.625Z,59.82
2023-09-26T10:59:56.896Z,59.21
2023-09-26T11:02:25.315Z,58.35
2023-09-26T11:04:54.350Z,57.48
2023-09-26T11:07:23.327Z,56.66
2023-09-26T11:09:53.177Z,55.79
2023-09-26T11:12:21.733Z,52.98
2023-09-26T11:14:49.795Z,48.35
2023-09-26T11:17:17.925Z,44.33
2023-09-26T11:19:46.108Z,40.42
2023-09-26T11:22:14.311Z,37.29
2023-09-26T11:24:42.423Z,35.12
2023-09-26T11:27:12.615Z,32.83
2023-09-26T11:29:42.777Z,31.02
2023-09-26T11:32:12.011Z,29.54
2023-09-26T11:34:42.932Z,28.47
2023-09-26T11:37:11.238Z,27.45
2023-09-26T11:39:39.520Z,26.73
2023-09-26T11:42:08.470Z,26.47
2023-09-26T11:44:38.413Z,26.40
2023-09-26T11:47:10.078Z,26.25
2023-09-26T11:49:38.580Z,26.16
2023-09-26T11:52:07.324Z,26.03
2023-09-26T11:54:37.778Z,25.87
2023-09-26T11:57:06.272Z,25.87
2023-09-26T11:59:36.120Z,25.76
2023-09-26T12:02:05.906Z,25.75
2023-09-26T12:04:35.040Z,25.75
2023-09-26T12:07:03.966Z,25.60
2023-09-26T12:09:34.528Z,25.59
2023-09-26T12:12:02.902Z,25.63
2023-09-26T12:14:31.461Z,25.69
2023-09-26T12:17:01.157Z,25.74
2023-09-26T12:19:30.970Z,25.75
2023-09-26T12:21:59.209Z,25.76
2023-09-26T12:24:27.295Z,25.82
2023-09-26T12:26:55.396Z,25.87
2023-09-26T12:29:23.588Z,25.85
2023-09-26T12:31:52.024Z,25.82
2023-09-26T12:34:20.798Z,25.80
2023-09-26T12:36:50.650Z,25.76
2023-09-26T12:39:18.752Z,25.72
2023-09-26T12:41:47.043Z,25.73
2023-09-26T12:44:15.312Z,25.71
2023-09-26T12:46:43.501Z,25.72
2023-09-26T12:49:11.835Z,25.72
2023-09-26T12:51:40.289Z,25.70
2023-09-26T12:54:10.017Z,25.60
2023-09-26T12:56:38.324Z,25.57
2023-09-26T12:59:07.075Z,25.57
2023-09-26T13:01:36.375Z,25.56
2023-09-26T13:04:04.992Z,25.52
2023-09-26T13:06:33.269Z,25.49
2023-09-26T13:09:01.561Z,25.48
2023-09-26T13:11:31.076Z,25.46
2023-09-26T13:13:59.295Z,25.33
2023-09-26T13:16:28.099Z,25.37
2023-09-26T13:18:57.019Z,25.44
2023-09-26T13:21:25.218Z,25.39
2023-09-26T13:23:53.590Z,25.39
2023-09-26T13:26:21.853Z,25.38
2023-09-26T13:28:51.563Z,25.40
2023-09-26T13:31:19.801Z,25.39
2023-09-26T13:33:47.976Z,25.38
2023-09-26T13:36:16.054Z,25.46
2023-09-26T13:38:44.313Z,25.55
2023-09-26T13:41:12.799Z,25.62
2023-09-26T13:43:41.122Z,25.61
2023-09-26T13:46:10.805Z,25.63
2023-09-26T13:48:39.059Z,25.69
2023-09-26T13:51:07.868Z,25.73
2023-09-26T13:53:36.508Z,25.72
2023-09-26T13:56:04.720Z,25.73
2023-09-26T13:58:32.915Z,25.69
2023-09-26T14:01:01.099Z,25.64
2023-09-26T14:03:32.475Z,25.63
2023-09-26T14:06:01.281Z,25.68
2023-09-26T14:08:29.461Z,25.69
2023-09-26T14:10:57.741Z,25.72
2023-09-26T14:13:26.040Z,25.72
2023-09-26T14:15:54.600Z,25.68
2023-09-26T14:18:22.877Z,25.61
2023-09-26T14:20:53.268Z,25.64
2023-09-26T14:23:24.871Z,25.65
2023-09-26T14:25:54.346Z,25.69
2023-09-26T14:28:22.816Z,25.72
2023-09-26T14:30:51.140Z,25.69
2023-09-26T14:33:19.717Z,25.70
2023-09-26T14:35:48.504Z,25.69
2023-09-26T14:38:18.806Z,25.58
2023-09-26T14:40:49.405Z,25.48
2023-09-26T14:43:17.664Z,25.45
2023-09-26T14:45:52.924Z,25.40
2023-09-26T14:48:22.018Z,25.43
2023-09-26T14:50:51.199Z,25.29
2023-09-26T14:53:21.258Z,25.22
2023-09-26T14:55:49.738Z,25.14
2023-09-26T14:58:17.946Z,25.05
2023-09-26T15:00:48.105Z,25.06
2023-09-26T15:03:17.010Z,24.98
2023-09-26T15:05:45.671Z,24.97
2023-09-26T15:08:14.042Z,25.02
2023-09-26T15:10:43.832Z,25.08
2023-09-26T15:13:13.637Z,25.09
2023-09-26T15:15:42.012Z,25.09
2023-09-26T15:18:10.248Z,25.12
2023-09-26T15:20:40.577Z,25.12
2023-09-26T15:23:12.161Z,25.05
2023-09-26T15:25:40.348Z,25.04
2023-09-26T15:28:14.346Z,25.07
2023-09-26T15:30:42.618Z,25.06
2023-09-26T15:33:11.039Z,24.96
2023-09-26T15:35:40.535Z,24.87
2023-09-26T15:38:09.366Z,24.88
2023-09-26T15:40:37.647Z,24.87
2023-09-26T15:43:06.497Z,24.89
2023-09-26T15:45:36.190Z,24.88
2023-09-26T15:48:05.406Z,24.88
2023-09-26T15:50:33.683Z,24.81
2023-09-26T15:53:02.036Z,24.81
2023-09-26T15:55:30.323Z,24.80
2023-09-26T15:57:58.447Z,24.73
2023-09-26T16:00:26.550Z,24.63
2023-09-26T16:02:56.070Z,24.57
2023-09-26T16:05:24.316Z,24.57
2023-09-26T16:07:52.687Z,24.50
2023-09-26T16:10:21.519Z,24.38
2023-09-26T16:15:29.518Z,24.31
2023-09-26T16:18:00.815Z,24.24
2023-09-26T16:20:29.251Z,24.20
2023-09-26T16:22:58.017Z,24.23
2023-09-26T16:25:26.299Z,24.28
2023-09-26T16:27:54.549Z,24.30
2023-09-26T16:30:22.930Z,24.18
2023-09-26T16:32:51.357Z,24.05
2023-09-26T16:35:21.326Z,23.95
2023-09-26T16:37:49.968Z,23.83
2023-09-26T16:40:18.202Z,23.69
2023-09-26T16:42:46.434Z,23.57
2023-09-26T16:45:15.130Z,23.44
2023-09-26T16:47:45.891Z,23.33
2023-09-26T16:50:15.487Z,23.20
2023-09-26T16:52:45.261Z,23.09
2023-09-26T16:55:13.562Z,22.98
2023-09-26T16:57:43.782Z,22.81
2023-09-26T17:00:15.727Z,22.68
2023-09-26T17:02:44.219Z,22.61
2023-09-26T17:05:13.115Z,22.57
2023-09-26T17:07:42.741Z,22.47
2023-09-26T17:10:12.952Z,22.41
2023-09-26T17:12:41.248Z,22.34
2023-09-26T17:15:10.190Z,22.31
2023-09-26T17:17:39.549Z,22.33
2023-09-26T17:20:09.121Z,22.29
2023-09-26T17:22:37.527Z,22.27
2023-09-26T17:25:06.447Z,22.21
2023-09-26T17:27:37.208Z,22.15
2023-09-26T17:30:08.069Z,22.10
2023-09-26T17:32:37.251Z,22.02
2023-09-26T17:35:06.248Z,21.90
2023-09-26T17:37:34.674Z,21.82
2023-09-26T17:40:02.892Z,21.75
2023-09-26T17:42:35.330Z,21.62
2023-09-26T17:45:04.280Z,21.55
2023-09-26T17:47:32.540Z,21.54
2023-09-26T17:50:00.839Z,21.52
2023-09-26T17:52:29.159Z,21.50
2023-09-26T17:54:57.443Z,21.41
2023-09-26T17:57:25.809Z,21.39
2023-09-26T17:59:55.979Z,21.40
2023-09-26T18:02:24.294Z,21.43
2023-09-26T18:04:55.828Z,21.46
2023-09-26T18:07:24.430Z,21.50
2023-09-26T18:09:52.684Z,21.48
2023-09-26T18:12:20.930Z,21.40
2023-09-26T18:14:49.180Z,21.29
2023-09-26T18:17:19.007Z,21.12
2023-09-26T18:19:47.471Z,20.98
2023-09-26T18:22:15.766Z,20.87
2023-09-26T18:24:44.054Z,20.78
2023-09-26T18:27:12.357Z,20.71
2023-09-26T18:29:40.613Z,20.63
2023-09-26T18:32:08.974Z,20.55
2023-09-26T18:34:38.619Z,20.49
2023-09-26T18:37:06.921Z,20.42
2023-09-26T18:39:35.224Z,20.35
2023-09-26T18:42:04.681Z,20.28
2023-09-26T18:44:32.926Z,20.26
2023-09-26T18:47:01.211Z,20.23
2023-09-26T18:49:29.579Z,20.24
2023-09-26T18:51:59.230Z,20.23
2023-09-26T18:54:27.594Z,20.16
2023-09-26T18:56:57.123Z,20.15
2023-09-26T18:59:25.865Z,20.11
2023-09-26T19:01:54.306Z,20.09
2023-09-26T19:04:22.941Z,20.06
2023-09-26T19:06:51.286Z,20.03
2023-09-26T19:09:20.892Z,19.98
2023-09-26T19:11:51.032Z,19.96
2023-09-26T19:14:19.272Z,19.93
2023-09-26T19:16:47.574Z,19.93
2023-09-26T19:19:15.771Z,19.92
2023-09-26T19:21:44.429Z,19.83
2023-09-26T19:24:13.027Z,19.71
2023-09-26T19:26:43.930Z,19.62
2023-09-26T19:29:12.268Z,19.51
2023-09-26T19:31:41.535Z,19.42
2023-09-26T19:34:09.911Z,19.39
2023-09-26T19:36:38.184Z,19.37
2023-09-26T19:39:06.547Z,19.36
2023-09-26T19:41:34.791Z,19.35
2023-09-26T19:44:04.784Z,19.33
2023-09-26T19:46:33.128Z,19.33
2023-09-26T19:49:01.319Z,19.28
2023-09-26T19:51:29.623Z,19.21
2023-09-26T19:53:58.205Z,19.12
2023-09-26T19:56:27.164Z,19.03
2023-09-26T19:58:55.821Z,18.99
2023-09-26T20:01:26.969Z,18.92
2023-09-26T20:03:55.696Z,18.86
2023-09-26T20:06:24.356Z,18.77
2023-09-26T20:08:55.718Z,18.76
2023-09-26T20:11:24.382Z,18.68
2023-09-26T20:13:52.706Z,18.67
2023-09-26T20:16:21.143Z,18.61
2023-09-26T20:18:50.845Z,18.53
2023-09-26T20:21:19.207Z,18.49
2023-09-26T20:23:48.028Z,18.46
2023-09-26T20:26:16.311Z,18.44
2023-09-26T20:28:46.137Z,18.46
2023-09-26T20:31:17.011Z,18.45
2023-09-26T20:33:46.938Z,18.46
2023-09-26T20:36:16.592Z,18.43
2023-09-26T20:38:44.667Z,18.38
2023-09-26T20:41:12.987Z,18.34
2023-09-26T20:43:41.453Z,18.36
2023-09-26T20:46:10.452Z,18.33
2023-09-26T20:48:38.766Z,18.29
2023-09-26T20:51:07.266Z,18.24
2023-09-26T20:53:36.837Z,18.15
2023-09-26T20:56:06.403Z,18.04
2023-09-26T20:58:34.946Z,17.95
2023-09-26T21:01:10.008Z,17.90
2023-09-26T21:03:38.708Z,17.83
2023-09-26T21:06:10.776Z,17.76
2023-09-26T21:08:40.600Z,17.70
2023-09-26T21:11:08.797Z,17.65
2023-09-26T21:13:37.084Z,17.62
2023-09-26T21:16:10.521Z,17.60
2023-09-26T21:18:40.528Z,17.53
2023-09-26T21:21:09.337Z,17.46
2023-09-26T21:23:37.709Z,17.40
2023-09-26T21:26:11.568Z,17.39
2023-09-26T21:28:40.360Z,17.35
2023-09-26T21:31:08.635Z,17.32
2023-09-26T21:33:37.887Z,17.28
2023-09-26T21:36:07.394Z,17.26
2023-09-26T21:38:36.462Z,17.20
2023-09-26T21:41:04.891Z,17.17
2023-09-26T21:43:34.514Z,17.14
2023-09-26T21:46:02.828Z,17.16
2023-09-26T21:48:31.056Z,17.18
2023-09-26T21:50:59.383Z,17.21
2023-09-26T21:53:27.494Z,17.22
2023-09-26T21:55:55.919Z,17.20
2023-09-26T21:58:24.135Z,17.12
2023-09-26T22:00:53.641Z,17.16
2023-09-26T22:03:21.842Z,17.11
2023-09-26T22:05:50.061Z,17.03
2023-09-26T22:08:18.369Z,16.98
2023-09-26T22:10:47.046Z,16.94
2023-09-26T22:13:15.103Z,16.92
2023-09-26T22:15:43.303Z,16.93
2023-09-26T22:18:12.903Z,16.95
2023-09-26T22:20:41.144Z,17.00
2023-09-26T22:23:09.264Z,16.98
2023-09-26T22:25:37.440Z,16.96
2023-09-26T22:28:05.941Z,16.88
2023-09-26T22:30:34.342Z,16.82
2023-09-26T22:33:02.907Z,16.73
2023-09-26T22:35:32.623Z,16.67
2023-09-26T22:38:00.771Z,16.64
2023-09-26T22:40:40.093Z,16.57
2023-09-26T22:43:16.678Z,16.43
2023-09-26T22:45:44.966Z,16.37
2023-09-26T22:48:14.800Z,16.35
2023-09-26T22:50:44.395Z,16.38
2023-09-26T22:53:12.473Z,16.36
2023-09-26T22:55:40.816Z,16.35
2023-09-26T22:58:09.692Z,16.33
2023-09-26T23:00:37.843Z,16.25
2023-09-26T23:03:06.685Z,16.22
2023-09-26T23:05:37.082Z,16.20
2023-09-26T23:08:07.666Z,16.19
2023-09-26T23:10:36.572Z,16.15
2023-09-26T23:13:04.924Z,16.11
2023-09-26T23:15:33.056Z,16.08
2023-09-26T23:18:01.280Z,16.01
2023-09-26T23:20:29.531Z,15.98
2023-09-26T23:22:57.711Z,15.96
2023-09-26T23:25:27.621Z,15.96
2023-09-26T23:27:55.700Z,15.95
2023-09-26T23:30:24.478Z,15.92
2023-09-26T23:32:52.661Z,15.91
2023-09-26T23:35:21.350Z,15.92
2023-09-26T23:37:50.326Z,15.90
2023-09-26T23:40:20.277Z,15.88
2023-09-26T23:42:49.864Z,15.90
2023-09-26T23:45:18.389Z,15.90
2023-09-26T23:47:46.518Z,15.92
2023-09-26T23:50:16.270Z,15.93
2023-09-26T23:52:45.379Z,15.94
2023-09-26T23:55:14.625Z,15.94
2023-09-26T23:57:42.864Z,15.97
